Millville Municipal Airport Millville US
ICAO: KMIV
IATA: MIV
Category: Medium
Scheduled Services: No

Elevation: 85 ft
TransAlt. 18000 ft.

Airport Communications:
APP/DEP:124.6
ASOS:128.125
CTAF:123.65
RDO:123.65
UNICOM:123

KMIV Zoom In..

Runways:

(A) RW 10 length 6003 ft width 150 ft
ILS 110.90 / hdg 101

(B) RW 14 length 5058 ft width 150 ft
---- / hdg 146

(C) RW 28 length 6003 ft width 150 ft
---- / hdg 281

(D) RW 32 length 5058 ft width 150 ft
---- / hdg 326

Location; KMIV
Day. 03 / Time. 01.54 Zulu
* Altimeter: 29.88
* Temperature: 19° c. 66.2°f.
* Wind from: 000° Speed 00 kn.
Dewpoint: 12° c.
Visibility: 10 Statute Miles.
Clouds: Broken 7000 ft.
Clouds: Broken 8500 ft.

KMIV 030154Z AUTO 00000KT 10SM BKN070 BKN085 19/12 A2988 RMK AO2 SLP117 T01890117


Wind - Calm.

 
 
jpsmedia worldairports.se 2020   terms of use